Time;durP1;ratioP1;P1;durP2;ratioP2;P2;SDS_P1;SDS_P2;PMS_P1;PMS_P2;Temp;Humidity;BMP_temperature;BMP_pressure;BME280_temperature;BME280_humidity;BME280_pressure;Samples;Min_cycle;Max_cycle;Signal;HPM_P1;HPM_P2
2023/01/19 00:01:23;;;;;;;53.17;21.70;;;-5.00;99.90;;;;;;4991927;28;20543;-89
2023/01/19 00:03:49;;;;;;;52.90;22.85;;;-5.10;99.90;;;;;;4992311;28;20044;-90
2023/01/19 00:06:14;;;;;;;54.28;24.05;;;-5.20;99.90;;;;;;4991758;28;20104;-90
2023/01/19 00:08:43;;;;;;;67.70;26.88;;;-5.30;99.90;;;;;;4991932;28;20477;-89
2023/01/19 00:11:09;;;;;;;70.88;27.88;;;-5.20;99.90;;;;;;4991695;28;20034;-89
2023/01/19 00:13:35;;;;;;;71.97;28.13;;;-5.20;99.90;;;;;;4991739;28;20121;-90
2023/01/19 00:16:01;;;;;;;72.82;30.50;;;-5.20;99.90;;;;;;4992591;28;20069;-91
2023/01/19 00:18:27;;;;;;;73.93;28.00;;;-5.30;99.90;;;;;;4991758;28;20465;-89
2023/01/19 00:20:53;;;;;;;81.20;31.05;;;-5.40;99.90;;;;;;4991346;28;20183;-90
2023/01/19 00:23:19;;;;;;;72.45;28.85;;;-5.40;99.90;;;;;;5076953;28;20034;-90
2023/01/19 00:25:46;;;;;;;71.93;27.25;;;-5.50;99.90;;;;;;4991150;28;20023;-89
2023/01/19 00:28:15;;;;;;;73.93;26.58;;;-5.60;99.90;;;;;;4991581;28;20113;-90
2023/01/19 00:30:41;;;;;;;63.70;25.30;;;-5.70;99.90;;;;;;4991270;28;20044;-89
2023/01/19 00:33:16;;;;;;;74.57;25.83;;;-5.70;99.90;;;;;;4991238;28;20030;-90
2023/01/19 00:35:42;;;;;;;67.40;26.55;;;-5.70;99.90;;;;;;4991120;28;20561;-90
2023/01/19 00:38:09;;;;;;;73.03;28.45;;;-5.70;99.90;;;;;;4991230;28;20070;-90
2023/01/19 00:40:35;;;;;;;69.80;26.85;;;-5.80;99.90;;;;;;4991114;28;20453;-90
2023/01/19 00:43:01;;;;;;;77.90;28.83;;;-5.90;99.90;;;;;;5076052;28;20033;-89
2023/01/19 00:45:27;;;;;;;95.22;32.35;;;-5.90;99.90;;;;;;4991045;28;20111;-89
2023/01/19 00:47:56;;;;;;;88.55;30.92;;;-5.70;99.90;;;;;;4992031;28;20026;-89
2023/01/19 00:50:27;;;;;;;96.97;34.40;;;-5.60;99.90;;;;;;4992048;28;20080;-90
2023/01/19 00:52:54;;;;;;;93.63;34.42;;;-5.50;99.90;;;;;;5076715;28;20498;-90
2023/01/19 00:55:20;;;;;;;93.95;33.85;;;-5.30;99.90;;;;;;4992143;28;20481;-89
2023/01/19 00:57:45;;;;;;;98.13;37.88;;;-5.20;99.90;;;;;;5095105;28;20034;-90
2023/01/19 01:00:14;;;;;;;74.10;29.95;;;-5.10;99.90;;;;;;4994189;28;20037;-91
2023/01/19 01:02:41;;;;;;;90.30;31.92;;;-5.10;99.90;;;;;;4997782;28;20037;-90
2023/01/19 01:05:08;;;;;;;89.72;33.70;;;-5.00;99.90;;;;;;4997570;28;20045;-90
2023/01/19 01:07:41;;;;;;;84.70;35.45;;;-4.80;99.90;;;;;;5100492;28;20090;-90
2023/01/19 01:10:09;;;;;;;99.47;38.45;;;-4.60;99.90;;;;;;4997765;28;20034;-89
2023/01/19 01:12:35;;;;;;;107.10;39.47;;;-4.50;99.90;;;;;;5100542;28;20038;-90
2023/01/19 01:15:01;;;;;;;110.30;40.22;;;-4.40;99.90;;;;;;4997586;28;20511;-90
2023/01/19 01:17:26;;;;;;;113.93;40.08;;;-4.30;99.90;;;;;;4997260;28;20033;-89
2023/01/19 01:19:52;;;;;;;110.38;41.00;;;-4.30;99.90;;;;;;4997492;28;20092;-89
2023/01/19 01:22:18;;;;;;;109.68;42.38;;;-4.20;99.90;;;;;;5083176;28;20090;-89
2023/01/19 01:24:43;;;;;;;131.98;43.17;;;-4.00;99.90;;;;;;4997640;28;20041;-90
2023/01/19 01:27:09;;;;;;;136.25;44.47;;;-3.90;99.90;;;;;;4997394;28;20038;-90
2023/01/19 01:29:35;;;;;;;124.10;44.90;;;-3.90;99.90;;;;;;4997739;28;20034;-90
2023/01/19 01:32:03;;;;;;;139.27;47.00;;;-3.80;99.90;;;;;;5100434;28;20034;-89
2023/01/19 01:34:28;;;;;;;137.75;49.13;;;-3.60;99.90;;;;;;4997498;28;20162;-90
2023/01/19 01:36:54;;;;;;;135.80;49.33;;;-3.50;99.90;;;;;;4997334;28;20063;-90
2023/01/19 01:39:21;;;;;;;138.52;48.42;;;-3.40;99.90;;;;;;4997246;28;20045;-90
2023/01/19 01:41:47;;;;;;;136.27;49.50;;;-3.30;99.90;;;;;;4997105;28;20107;-90
2023/01/19 01:44:48;;;;;;;127.80;49.67;;;-3.30;99.90;;;;;;4997354;28;20022;-90
2023/01/19 01:47:16;;;;;;;129.38;48.25;;;-3.20;99.90;;;;;;4997160;28;20033;-90
2023/01/19 01:49:42;;;;;;;123.40;47.53;;;-3.20;99.90;;;;;;5099800;28;20109;-90
2023/01/19 01:52:10;;;;;;;128.15;48.55;;;-3.20;99.90;;;;;;4997309;28;20034;-90
2023/01/19 01:54:35;;;;;;;131.95;49.30;;;-3.10;99.90;;;;;;4997115;28;20030;-89
2023/01/19 01:57:11;;;;;;;124.72;45.53;;;-3.20;99.90;;;;;;4997195;28;20495;-90
2023/01/19 01:59:40;;;;;;;117.88;47.75;;;-3.10;99.90;;;;;;4996885;28;20114;-90
2023/01/19 02:05:08;;;;;;;112.63;44.67;;;-3.00;99.90;;;;;;5099605;28;20030;-89
2023/01/19 02:13:20;;;;;;;118.72;44.65;;;-2.80;99.90;;;;;;5099388;28;20034;-90
2023/01/19 02:15:54;;;;;;;123.32;45.38;;;-2.80;99.90;;;;;;4996707;28;20026;-90
2023/01/19 02:18:22;;;;;;;123.47;44.13;;;-2.80;99.90;;;;;;4996690;28;20124;-90
2023/01/19 02:21:21;;;;;;;117.60;42.92;;;-2.70;99.90;;;;;;4997386;28;20045;-89
2023/01/19 02:23:52;;;;;;;111.13;41.55;;;-2.70;99.90;;;;;;5099669;28;20124;-90
2023/01/19 02:26:19;;;;;;;;;;;-2.70;99.90;;;;;;4997338;28;20030;-91
2023/01/19 02:29:07;;;;;;;108.72;42.40;;;-2.70;99.90;;;;;;4996436;28;19906;-89
2023/01/19 02:31:36;;;;;;;114.20;42.10;;;-2.60;99.90;;;;;;5082255;28;20022;-90
2023/01/19 02:34:03;;;;;;;111.18;44.30;;;-2.60;99.90;;;;;;4996822;28;20034;-89
2023/01/19 02:36:49;;;;;;;115.47;41.53;;;-2.50;99.90;;;;;;4996357;28;20037;-90
2023/01/19 02:39:37;;;;;;;98.97;41.47;;;-2.50;99.90;;;;;;5099096;28;20026;-90
2023/01/19 02:42:11;;;;;;;118.35;42.75;;;-2.50;99.90;;;;;;4996433;28;20489;-90
2023/01/19 02:44:39;;;;;;;117.18;42.53;;;-2.50;99.90;;;;;;4996193;28;20030;-91
2023/01/19 02:47:04;;;;;;;104.32;40.05;;;-2.50;99.90;;;;;;5081804;28;20032;-90
2023/01/19 02:49:30;;;;;;;101.20;39.85;;;-2.50;99.90;;;;;;4997385;28;20110;-89
2023/01/19 02:51:57;;;;;;;104.15;41.33;;;-2.50;99.90;;;;;;4996262;28;20121;-91
2023/01/19 02:54:31;;;;;;;98.10;39.63;;;-2.50;99.90;;;;;;4996469;28;20022;-90
2023/01/19 02:57:05;;;;;;;100.07;38.75;;;-2.40;99.90;;;;;;4996206;28;20227;-91
2023/01/19 03:00:01;;;;;;;96.88;39.47;;;-2.40;99.90;;;;;;5081541;28;20038;-91
2023/01/19 03:03:06;;;;;;;101.15;38.67;;;-2.40;99.90;;;;;;5081893;28;20476;-90
2023/01/19 03:05:47;;;;;;;96.47;38.85;;;-2.40;99.90;;;;;;5098827;28;20037;-90
2023/01/19 03:08:34;;;;;;;97.25;38.88;;;-2.40;99.90;;;;;;4996125;28;20116;-90
2023/01/19 03:11:04;;;;;;;93.72;35.78;;;-2.40;99.90;;;;;;5081681;28;20056;-90
2023/01/19 03:13:56;;;;;;;92.53;37.78;;;-2.40;99.90;;;;;;4995970;28;20034;-89
2023/01/19 03:16:40;;;;;;;90.95;37.50;;;-2.40;99.90;;;;;;5001251;28;20046;-90
2023/01/19 03:19:18;;;;;;;93.90;37.58;;;-2.40;99.90;;;;;;5081339;28;20378;-90
2023/01/19 03:21:48;;;;;;;91.50;38.40;;;-2.40;99.90;;;;;;4996034;28;20115;-90
2023/01/19 03:24:16;;;;;;;92.93;41.40;;;-2.40;99.90;;;;;;5097616;28;20129;-90
2023/01/19 03:26:48;;;;;;;77.90;35.55;;;-2.40;99.90;;;;;;4995829;28;20049;-91
2023/01/19 03:29:17;;;;;;;85.13;35.60;;;-2.40;99.90;;;;;;4995976;28;20445;-90
2023/01/19 03:31:47;;;;;;;90.10;36.65;;;-2.40;99.90;;;;;;5098161;28;20462;-90
2023/01/19 03:34:15;;;;;;;86.40;33.70;;;-2.40;99.90;;;;;;4995906;28;20036;-89
2023/01/19 03:36:49;;;;;;;78.97;33.00;;;-2.40;99.90;;;;;;4995491;28;20281;-90
2023/01/19 03:39:21;;;;;;;89.78;32.30;;;-2.40;99.90;;;;;;4996125;28;20052;-89
2023/01/19 03:41:51;;;;;;;73.25;32.75;;;-2.40;99.90;;;;;;5098135;28;20564;-90
2023/01/19 03:44:17;;;;;;;72.57;31.70;;;-2.30;99.90;;;;;;4995440;28;20030;-90
2023/01/19 03:46:44;;;;;;;69.07;29.77;;;-2.40;99.90;;;;;;4995678;28;20022;-90
2023/01/19 03:49:11;;;;;;;68.20;30.15;;;-2.30;99.90;;;;;;5080817;28;20066;-90
2023/01/19 03:51:37;;;;;;;72.82;30.95;;;-2.30;99.90;;;;;;5080603;28;20029;-90
2023/01/19 03:54:08;;;;;;;78.75;29.60;;;-2.30;99.90;;;;;;4995509;28;20117;-91
2023/01/19 03:56:34;;;;;;;68.68;30.08;;;-2.30;99.90;;;;;;4995401;28;20065;-90
2023/01/19 03:59:01;;;;;;;65.28;29.10;;;-2.30;99.90;;;;;;4995201;28;20022;-90
2023/01/19 04:01:27;;;;;;;74.50;34.17;;;-2.30;99.90;;;;;;4995152;28;20041;-90
2023/01/19 04:03:56;;;;;;;72.28;29.05;;;-2.20;99.90;;;;;;4995290;28;20030;-90
2023/01/19 04:06:22;;;;;;;65.90;30.73;;;-2.30;99.90;;;;;;4994730;28;20026;-90
2023/01/19 04:08:49;;;;;;;66.78;29.80;;;-2.20;99.90;;;;;;4994880;28;20389;-89
2023/01/19 04:11:15;;;;;;;61.97;28.60;;;-2.20;99.90;;;;;;4995132;28;20037;-89
2023/01/19 04:13:41;;;;;;;76.43;28.67;;;-2.20;99.90;;;;;;4994664;28;20042;-90
2023/01/19 04:16:08;;;;;;;65.18;29.60;;;-2.20;99.90;;;;;;5097033;28;20034;-90
2023/01/19 04:18:34;;;;;;;64.35;28.65;;;-2.20;99.90;;;;;;4994836;28;20128;-90
2023/01/19 04:21:05;;;;;;;68.47;30.30;;;-2.20;99.90;;;;;;4994771;28;20117;-90
2023/01/19 04:23:31;;;;;;;;;;;-2.20;99.90;;;;;;5080439;28;20109;-89
2023/01/19 04:26:02;;;;;;;73.38;29.42;;;-2.20;99.90;;;;;;5097513;28;19914;-90
2023/01/19 04:28:27;;;;;;;67.38;29.67;;;-2.20;99.90;;;;;;4994904;28;20038;-90
2023/01/19 04:30:53;;;;;;;75.25;30.88;;;-2.20;99.90;;;;;;5097206;28;20079;-89
2023/01/19 04:33:20;;;;;;;71.78;32.35;;;-2.20;99.90;;;;;;4995005;28;20029;-90
2023/01/19 04:35:47;;;;;;;62.92;30.42;;;-2.20;99.90;;;;;;5096768;28;20056;-90
2023/01/19 04:38:12;;;;;;;67.63;28.58;;;-2.20;99.90;;;;;;4994854;28;20445;-90
2023/01/19 04:40:38;;;;;;;84.82;34.75;;;-2.20;99.90;;;;;;4994760;28;20030;-90
2023/01/19 04:43:04;;;;;;;72.57;31.42;;;-2.20;99.90;;;;;;4994890;28;20163;-90
2023/01/19 04:45:29;;;;;;;78.65;32.25;;;-2.20;99.90;;;;;;5096436;28;20473;-89
2023/01/19 04:47:55;;;;;;;75.95;32.03;;;-2.20;99.90;;;;;;4994740;28;20541;-90
2023/01/19 04:50:21;;;;;;;70.88;28.90;;;-2.20;99.90;;;;;;5079697;28;20374;-90
2023/01/19 04:52:47;;;;;;;67.97;31.52;;;-2.10;99.90;;;;;;4994543;28;20030;-89
2023/01/19 04:55:14;;;;;;;75.68;32.47;;;-2.10;99.90;;;;;;4994793;28;20484;-90
2023/01/19 04:57:40;;;;;;;66.72;30.60;;;-2.10;99.90;;;;;;4994116;28;20065;-90
2023/01/19 05:00:07;;;;;;;76.53;32.92;;;-2.10;99.90;;;;;;5096828;28;20040;-89
2023/01/19 05:02:33;;;;;;;81.45;32.78;;;-2.10;99.90;;;;;;5097246;28;20064;-90
2023/01/19 05:04:59;;;;;;;69.28;30.55;;;-2.10;99.90;;;;;;4994822;28;20050;-90
2023/01/19 05:07:25;;;;;;;76.30;32.05;;;-2.20;99.90;;;;;;4994664;28;20389;-89
2023/01/19 05:09:51;;;;;;;76.25;31.98;;;-2.10;99.90;;;;;;5079715;28;20029;-90
2023/01/19 05:12:17;;;;;;;70.47;31.88;;;-2.10;99.90;;;;;;5079684;28;20026;-90
2023/01/19 05:14:42;;;;;;;78.50;33.70;;;-2.20;99.90;;;;;;4994179;28;20117;-89
2023/01/19 05:17:09;;;;;;;76.15;33.17;;;-2.10;99.90;;;;;;4994128;28;20033;-90
2023/01/19 05:19:34;;;;;;;81.38;34.58;;;-2.10;99.90;;;;;;4994291;28;20473;-90
2023/01/19 05:22:22;;;;;;;72.50;31.77;;;-2.10;99.90;;;;;;5080386;28;20114;-90
2023/01/19 05:24:47;;;;;;;74.40;30.25;;;-2.00;99.90;;;;;;4994620;28;20090;-90
2023/01/19 05:27:13;;;;;;;69.90;30.10;;;-2.00;99.90;;;;;;5096455;28;20034;-90
2023/01/19 05:29:39;;;;;;;69.22;29.95;;;-2.00;99.90;;;;;;4994249;28;20037;-89
2023/01/19 05:32:05;;;;;;;80.38;32.65;;;-2.10;99.90;;;;;;4994328;28;20034;-89
2023/01/19 05:34:30;;;;;;;82.78;36.83;;;-2.00;99.90;;;;;;4994005;28;20074;-90
2023/01/19 05:36:56;;;;;;;78.25;34.47;;;-2.10;99.90;;;;;;4993979;28;20576;-90
2023/01/19 05:39:22;;;;;;;69.13;30.40;;;-2.00;99.90;;;;;;4994057;28;20030;-90
2023/01/19 05:41:47;;;;;;;67.50;30.77;;;-2.00;99.90;;;;;;4993894;28;20146;-90
2023/01/19 05:44:13;;;;;;;73.88;30.08;;;-2.10;99.90;;;;;;4993935;28;20030;-90
2023/01/19 05:46:42;;;;;;;73.45;31.45;;;-2.10;99.90;;;;;;4994836;28;20112;-90
2023/01/19 05:49:07;;;;;;;84.60;31.15;;;-2.00;99.90;;;;;;5083295;28;20038;-90
2023/01/19 05:51:36;;;;;;;88.30;38.25;;;-2.00;99.90;;;;;;4997820;28;20030;-90
2023/01/19 05:54:06;;;;;;;92.03;37.90;;;-2.00;99.90;;;;;;4997444;28;20385;-90
2023/01/19 05:56:33;;;;;;;81.32;33.72;;;-2.00;99.90;;;;;;4997376;28;20113;-90
2023/01/19 05:58:59;;;;;;;81.03;34.88;;;-2.00;99.90;;;;;;4997363;28;20030;-90
2023/01/19 06:01:25;;;;;;;74.32;31.63;;;-2.00;99.90;;;;;;5100004;28;20167;-90
2023/01/19 06:03:51;;;;;;;56.22;26.98;;;-2.00;99.90;;;;;;4997202;28;20045;-91
2023/01/19 06:06:17;;;;;;;62.13;30.15;;;-2.00;99.90;;;;;;4997638;28;20022;-90
2023/01/19 06:08:43;;;;;;;72.45;31.42;;;-2.00;99.90;;;;;;4997146;28;20029;-90
2023/01/19 06:11:09;;;;;;;86.43;33.97;;;-2.00;99.90;;;;;;5100119;28;20091;-89
2023/01/19 06:14:03;;;;;;;70.00;30.42;;;-2.00;99.90;;;;;;4996997;28;20026;-90
2023/01/19 06:16:29;;;;;;;69.22;27.88;;;-2.00;99.90;;;;;;4997011;28;20034;-90
2023/01/19 06:18:54;;;;;;;64.80;27.50;;;-2.00;99.90;;;;;;5082298;28;20128;-89
2023/01/19 06:21:20;;;;;;;65.13;28.45;;;-2.10;99.90;;;;;;4996852;28;20026;-89
2023/01/19 06:23:46;;;;;;;62.83;27.42;;;-2.10;99.90;;;;;;4997223;28;20022;-91
2023/01/19 06:26:12;;;;;;;58.55;25.38;;;-2.10;99.90;;;;;;4996853;28;20026;-90
2023/01/19 06:28:38;;;;;;;61.28;28.65;;;-2.10;99.90;;;;;;4997131;28;20081;-90
2023/01/19 06:31:04;;;;;;;68.53;28.08;;;-2.10;99.90;;;;;;4996850;28;20416;-90
2023/01/19 06:33:30;;;;;;;68.30;29.63;;;-2.10;99.90;;;;;;4996726;28;20038;-89
2023/01/19 06:35:56;;;;;;;54.08;24.52;;;-2.10;99.90;;;;;;4996414;28;20038;-90
2023/01/19 06:38:22;;;;;;;52.75;25.20;;;-2.10;99.90;;;;;;4996768;28;20540;-90
2023/01/19 06:40:57;;;;;;;60.10;27.25;;;-2.20;99.90;;;;;;4996370;28;20041;-90
2023/01/19 06:43:24;;;;;;;64.10;27.38;;;-2.10;99.90;;;;;;4996409;28;20041;-89
2023/01/19 06:46:05;;;;;;;60.63;28.45;;;-2.10;99.90;;;;;;4997090;28;20075;-89
2023/01/19 06:48:30;;;;;;;59.05;28.17;;;-2.10;99.90;;;;;;5099542;28;20033;-90
2023/01/19 06:50:56;;;;;;;67.93;29.80;;;-2.10;99.90;;;;;;4996973;28;20030;-90
2023/01/19 06:53:22;;;;;;;67.05;28.85;;;-2.10;99.90;;;;;;4997104;28;20094;-90
2023/01/19 06:55:47;;;;;;;72.32;29.15;;;-2.10;99.90;;;;;;4996820;28;20057;-91
2023/01/19 06:58:13;;;;;;;75.57;28.30;;;-2.10;99.90;;;;;;4995820;28;20026;-90
2023/01/19 07:00:39;;;;;;;63.92;27.35;;;-2.10;99.90;;;;;;4996423;28;20033;-90
2023/01/19 07:03:06;;;;;;;63.15;26.40;;;-2.10;99.90;;;;;;4996921;28;20022;-90
2023/01/19 07:05:35;;;;;;;61.03;25.50;;;-2.10;99.90;;;;;;4996761;28;20033;-90
2023/01/19 07:08:02;;;;;;;60.80;26.20;;;-2.10;99.90;;;;;;4996761;28;20033;-90
2023/01/19 07:10:27;;;;;;;63.80;29.13;;;-2.00;99.90;;;;;;4996601;28;20034;-91
2023/01/19 07:12:55;;;;;;;61.10;28.08;;;-2.00;99.90;;;;;;4996711;28;20462;-90
2023/01/19 07:15:21;;;;;;;58.03;26.83;;;-2.00;99.90;;;;;;4995798;28;20041;-90
2023/01/19 07:17:48;;;;;;;66.65;27.95;;;-2.00;99.90;;;;;;5081461;28;20046;-89
2023/01/19 07:20:14;;;;;;;54.97;24.65;;;-2.00;99.90;;;;;;4994994;28;20753;-89
2023/01/19 07:22:45;;;;;;;60.03;26.60;;;-2.00;99.90;;;;;;4995875;28;20392;-89
2023/01/19 07:25:11;;;;;;;62.70;26.15;;;-2.00;99.90;;;;;;4994798;28;20366;-89
2023/01/19 07:27:37;;;;;;;52.60;24.23;;;-2.00;99.90;;;;;;4995413;28;20145;-89
2023/01/19 07:30:03;;;;;;;63.25;27.27;;;-2.00;99.90;;;;;;5098368;28;20069;-90
2023/01/19 07:32:29;;;;;;;63.67;27.63;;;-2.00;99.90;;;;;;5097716;28;20049;-89
2023/01/19 07:34:55;;;;;;;62.08;27.73;;;-2.00;99.90;;;;;;4995666;28;20091;-90
2023/01/19 07:37:21;;;;;;;61.38;28.15;;;-1.90;99.90;;;;;;4995211;28;20061;-90
2023/01/19 07:39:46;;;;;;;56.70;25.88;;;-1.90;99.90;;;;;;4994963;28;20030;-89
2023/01/19 07:42:12;;;;;;;63.95;29.42;;;-2.00;99.90;;;;;;4994904;28;20030;-90
2023/01/19 07:44:38;;;;;;;64.22;26.42;;;-1.90;99.90;;;;;;4994972;28;20030;-90
2023/01/19 07:47:06;;;;;;;56.88;24.83;;;-1.90;99.90;;;;;;4995464;28;20087;-89
2023/01/19 07:49:32;;;;;;;49.30;23.25;;;-1.90;99.90;;;;;;4994480;28;20036;-89
2023/01/19 07:51:57;;;;;;;57.78;25.33;;;-1.90;99.90;;;;;;4994782;28;20030;-90
2023/01/19 07:54:23;;;;;;;51.75;24.33;;;-1.90;99.90;;;;;;5079877;28;20092;-89
2023/01/19 07:56:53;;;;;;;55.70;23.38;;;-1.90;99.90;;;;;;4995675;28;20034;-89
2023/01/19 07:59:18;;;;;;;50.90;22.80;;;-1.90;99.90;;;;;;5098190;28;20034;-90
2023/01/19 08:01:44;;;;;;;53.20;24.48;;;-1.90;99.90;;;;;;4995359;28;20041;-89
2023/01/19 08:04:10;;;;;;;55.30;24.70;;;-1.90;99.90;;;;;;4994709;28;20037;-90
2023/01/19 08:06:38;;;;;;;53.08;25.48;;;-1.90;99.90;;;;;;4993996;28;20040;-90
2023/01/19 08:09:05;;;;;;;60.80;23.75;;;-1.80;99.90;;;;;;5011844;28;20029;-91
2023/01/19 08:11:32;;;;;;;52.08;24.02;;;-1.70;99.90;;;;;;4994796;28;20402;-91
2023/01/19 08:13:59;;;;;;;56.53;24.52;;;-1.80;99.90;;;;;;4994164;28;20038;-89
2023/01/19 08:16:26;;;;;;;59.38;26.05;;;-1.80;99.90;;;;;;4994743;28;20086;-89
2023/01/19 08:18:52;;;;;;;62.22;26.08;;;-1.80;99.90;;;;;;4994693;28;20030;-89
2023/01/19 08:21:18;;;;;;;64.95;29.23;;;-1.80;99.90;;;;;;4994008;28;20038;-89
2023/01/19 08:23:44;;;;;;;63.17;29.67;;;-1.70;99.90;;;;;;4994415;28;20116;-89
2023/01/19 08:26:18;;;;;;;65.72;28.70;;;-1.70;99.90;;;;;;4994152;28;20040;-89
2023/01/19 08:28:43;;;;;;;61.53;27.92;;;-1.60;99.90;;;;;;5079670;28;20034;-90
2023/01/19 08:31:09;;;;;;;70.88;30.55;;;-1.60;99.90;;;;;;4994421;28;20033;-90
2023/01/19 08:33:35;;;;;;;65.90;29.25;;;-1.50;99.90;;;;;;4993674;28;20241;-91
2023/01/19 08:36:01;;;;;;;64.15;26.60;;;-1.40;99.90;;;;;;5096248;28;20041;-91
2023/01/19 08:38:27;;;;;;;63.85;27.52;;;-1.40;99.90;;;;;;5096666;28;20029;-89
2023/01/19 08:40:52;;;;;;;54.72;27.50;;;-1.50;99.90;;;;;;4993723;28;20040;-90
2023/01/19 08:43:18;;;;;;;62.30;28.08;;;-1.50;99.90;;;;;;4993613;28;20299;-89
2023/01/19 08:45:50;;;;;;;64.15;32.58;;;-1.50;99.90;;;;;;4994015;28;20120;-90
2023/01/19 08:48:18;;;;;;;62.90;30.70;;;-1.50;99.90;;;;;;4993904;28;20022;-90
2023/01/19 08:50:49;;;;;;;58.88;28.48;;;-1.50;99.90;;;;;;4993721;28;20112;-89
2023/01/19 08:53:15;;;;;;;70.85;30.13;;;-1.50;99.90;;;;;;4994151;28;20058;-89
2023/01/19 08:55:42;;;;;;;64.80;29.75;;;-1.50;99.90;;;;;;4993478;28;20030;-89
2023/01/19 08:58:08;;;;;;;62.25;29.40;;;-1.60;99.90;;;;;;5096075;28;20505;-89
2023/01/19 09:00:36;;;;;;;62.13;27.40;;;-1.50;99.90;;;;;;4993902;28;20054;-89
2023/01/19 09:03:03;;;;;;;57.55;26.83;;;-1.60;99.90;;;;;;4993542;28;20480;-89
2023/01/19 09:05:34;;;;;;;59.05;28.40;;;-1.60;99.90;;;;;;5011163;28;20411;-89
2023/01/19 09:08:09;;;;;;;58.25;28.08;;;-1.60;99.90;;;;;;5079653;28;20033;-90
2023/01/19 09:10:37;;;;;;;64.78;28.13;;;-1.50;99.90;;;;;;4993623;28;20069;-89
2023/01/19 09:13:07;;;;;;;59.65;26.25;;;-1.40;99.90;;;;;;4994223;28;20030;-90
2023/01/19 09:15:34;;;;;;;61.65;26.27;;;-1.40;99.90;;;;;;4993967;28;20353;-89
2023/01/19 09:18:01;;;;;;;54.67;25.20;;;-1.30;99.90;;;;;;4993685;28;20045;-90
2023/01/19 09:20:29;;;;;;;54.92;26.38;;;-1.30;99.90;;;;;;5095955;28;20110;-89
2023/01/19 09:22:57;;;;;;;55.58;25.63;;;-1.20;99.90;;;;;;4996580;28;20021;-89
2023/01/19 09:25:23;;;;;;;49.58;23.33;;;-1.30;99.90;;;;;;4996994;28;20107;-89
2023/01/19 09:27:48;;;;;;;48.10;23.38;;;-1.20;99.90;;;;;;4997193;28;20037;-89
2023/01/19 09:30:15;;;;;;;53.88;24.35;;;-1.10;99.90;;;;;;4997092;28;20038;-90
2023/01/19 09:32:41;;;;;;;51.88;23.80;;;-1.10;99.90;;;;;;4996895;28;20026;-90
2023/01/19 09:35:08;;;;;;;51.90;24.90;;;-1.10;99.90;;;;;;5082891;28;20033;-90
2023/01/19 09:37:33;;;;;;;51.90;23.73;;;-1.20;99.90;;;;;;4996682;28;20441;-90
2023/01/19 09:39:59;;;;;;;47.92;23.00;;;-1.00;99.90;;;;;;5099338;28;20038;-90
2023/01/19 09:42:49;;;;;;;44.33;22.00;;;-0.90;99.90;;;;;;5014100;28;20373;-90
2023/01/19 09:45:24;;;;;;;48.88;24.42;;;-0.80;99.90;;;;;;4996625;28;20030;-90
2023/01/19 09:47:50;;;;;;;50.92;22.40;;;-0.70;99.90;;;;;;5082516;28;20026;-89
2023/01/19 09:50:26;;;;;;;45.95;23.60;;;-0.50;99.90;;;;;;5099178;28;20550;-90
2023/01/19 09:53:06;;;;;;;45.15;22.15;;;-0.40;99.90;;;;;;4996362;28;20125;-90
2023/01/19 09:55:32;;;;;;;45.70;21.90;;;-0.50;99.90;;;;;;4996572;28;20401;-89
2023/01/19 09:57:58;;;;;;;44.60;21.95;;;-0.40;99.90;;;;;;4996394;28;20042;-89
2023/01/19 10:00:26;;;;;;;41.83;21.25;;;-0.40;99.90;;;;;;4996618;28;20034;-89
2023/01/19 10:03:23;;;;;;;43.47;21.05;;;-0.20;99.90;;;;;;5082118;28;20033;-90
2023/01/19 10:06:02;;;;;;;42.47;19.50;;;-0.20;99.90;;;;;;4996164;28;20117;-90
2023/01/19 10:08:31;;;;;;;40.17;20.08;;;-0.20;99.90;;;;;;4996338;28;20037;-90
2023/01/19 10:10:57;;;;;;;41.70;18.98;;;-0.20;99.90;;;;;;5081791;28;20038;-89
2023/01/19 10:13:33;;;;;;;38.65;18.48;;;-0.10;99.90;;;;;;5098984;28;20041;-90
2023/01/19 10:16:29;;;;;;;38.60;20.67;;;-0.20;99.90;;;;;;4996092;28;20045;-89
2023/01/19 10:19:01;;;;;;;37.72;19.15;;;-0.20;99.90;;;;;;5098250;28;20057;-91
2023/01/19 10:21:32;;;;;;;43.25;19.55;;;-0.30;99.90;;;;;;4996221;28;20481;-90
2023/01/19 10:24:17;;;;;;;;;;;-0.40;99.90;;;;;;4996151;28;20041;-90
2023/01/19 10:26:51;;;;;;;36.70;19.45;;;-0.40;99.90;;;;;;5082118;28;20264;-90
2023/01/19 10:29:33;;;;;;;43.83;20.70;;;-0.40;99.90;;;;;;4995995;28;20037;-90
2023/01/19 10:32:15;;;;;;;39.78;20.23;;;-0.40;99.90;;;;;;4995980;28;20026;-90
2023/01/19 10:34:41;;;;;;;37.58;20.02;;;-0.30;99.90;;;;;;4995911;28;20485;-90
2023/01/19 10:37:31;;;;;;;41.78;21.10;;;-0.20;99.90;;;;;;4995692;28;20034;-90
2023/01/19 10:40:10;;;;;;;38.72;19.45;;;-0.20;99.90;;;;;;4996434;28;20041;-90
2023/01/19 10:42:40;;;;;;;38.90;19.75;;;-0.20;99.90;;;;;;5098360;28;20041;-91
2023/01/19 10:45:17;;;;;;;45.67;21.65;;;-0.10;99.90;;;;;;5081498;28;20034;-91
2023/01/19 10:47:45;;;;;;;39.15;19.75;;;0.10;99.90;;;;;;4995862;28;20062;-90
2023/01/19 10:50:23;;;;;;;36.95;17.90;;;0.20;99.90;;;;;;4995701;28;20037;-89
2023/01/19 10:52:50;;;;;;;34.75;18.13;;;0.40;99.90;;;;;;5080796;28;20424;-90
2023/01/19 10:55:37;;;;;;;41.25;18.58;;;0.40;99.90;;;;;;4995474;28;20034;-90
2023/01/19 10:58:04;;;;;;;36.40;18.80;;;0.40;99.90;;;;;;5098073;28;20124;-90
2023/01/19 11:00:29;;;;;;;38.13;18.48;;;0.30;99.90;;;;;;4978880;28;20046;-89
2023/01/19 11:02:55;;;;;;;40.05;19.88;;;0.30;99.90;;;;;;5080890;28;20037;-89
2023/01/19 11:05:23;;;;;;;32.65;16.10;;;0.50;99.90;;;;;;4995386;28;20025;-91
2023/01/19 11:07:49;;;;;;;34.83;17.52;;;0.60;99.90;;;;;;4994808;28;20034;-91
2023/01/19 11:10:15;;;;;;;30.23;16.35;;;0.70;99.90;;;;;;4995185;28;20045;-90
2023/01/19 11:12:54;;;;;;;28.80;15.93;;;0.60;99.90;;;;;;5097567;28;20034;-90
2023/01/19 11:15:22;;;;;;;26.85;14.57;;;0.70;99.90;;;;;;5012342;28;20476;-89
2023/01/19 11:17:48;;;;;;;32.63;16.02;;;0.60;99.90;;;;;;5080276;28;20046;-91
2023/01/19 11:20:27;;;;;;;39.42;16.48;;;0.30;99.90;;;;;;4994566;28;20389;-89
2023/01/19 11:23:22;;;;;;;32.53;16.05;;;0.30;99.90;;;;;;4994936;28;20498;-90
2023/01/19 11:26:04;;;;;;;29.55;16.17;;;0.30;99.90;;;;;;5097152;28;20038;-90
2023/01/19 11:28:52;;;;;;;32.60;16.60;;;0.40;99.90;;;;;;4994801;28;20022;-90
2023/01/19 11:31:28;;;;;;;35.33;17.25;;;0.40;99.90;;;;;;4993799;28;20443;-89
2023/01/19 11:33:58;;;;;;;35.00;17.25;;;0.50;99.90;;;;;;5080510;28;20073;-90
2023/01/19 11:36:26;;;;;;;30.58;17.20;;;0.60;99.90;;;;;;5079606;28;20038;-89
2023/01/19 11:38:54;;;;;;;36.20;18.70;;;0.60;99.90;;;;;;4994215;28;20057;-89
2023/01/19 11:41:33;;;;;;;30.33;16.67;;;0.70;99.90;;;;;;4994568;28;20065;-89
2023/01/19 11:44:10;;;;;;;31.67;16.88;;;0.80;99.90;;;;;;4994237;28;20121;-89
2023/01/19 11:46:39;;;;;;;33.90;15.85;;;0.90;99.90;;;;;;4994215;28;20038;-90
2023/01/19 11:49:14;;;;;;;43.35;17.88;;;0.90;99.90;;;;;;4993608;28;20022;-89
2023/01/19 11:51:57;;;;;;;33.13;16.40;;;0.90;99.90;;;;;;4994173;28;20026;-89
2023/01/19 11:54:30;;;;;;;40.78;16.83;;;1.00;99.90;;;;;;4994441;28;20345;-89
2023/01/19 11:56:58;;;;;;;29.60;16.58;;;0.80;99.90;;;;;;4994125;28;20133;-89
2023/01/19 11:59:24;;;;;;;33.20;17.20;;;0.80;99.90;;;;;;4993882;28;20082;-89
2023/01/19 12:01:57;;;;;;;39.85;18.55;;;0.70;99.90;;;;;;5096546;28;20034;-88
2023/01/19 12:04:32;;;;;;;37.78;17.58;;;0.60;99.90;;;;;;4994010;28;20086;-89
2023/01/19 12:07:09;;;;;;;41.58;19.85;;;0.60;99.90;;;;;;4993707;28;20062;-89
2023/01/19 12:09:37;;;;;;;39.00;18.65;;;0.60;99.90;;;;;;4993937;28;20389;-89
2023/01/19 12:12:14;;;;;;;35.97;18.63;;;0.50;99.90;;;;;;4994129;28;20037;-88
2023/01/19 12:15:04;;;;;;;37.38;16.90;;;0.50;99.90;;;;;;5096086;28;20113;-88
2023/01/19 12:17:35;;;;;;;41.25;16.95;;;0.50;99.90;;;;;;5096280;28;20128;-88
2023/01/19 12:20:26;;;;;;;37.30;17.40;;;0.70;99.90;;;;;;4993685;28;20044;-88
2023/01/19 12:23:10;;;;;;;30.42;16.25;;;0.80;99.90;;;;;;4993612;28;20075;-88
2023/01/19 12:26:03;;;;;;;35.45;16.60;;;0.80;99.90;;;;;;5078530;28;20091;-88
2023/01/19 12:28:32;;;;;;;34.28;15.73;;;1.00;99.90;;;;;;5078513;28;20474;-88
2023/01/19 12:31:00;;;;;;;31.15;15.48;;;1.00;99.90;;;;;;4993272;28;20029;-88
2023/01/19 12:33:38;;;;;;;27.58;15.43;;;1.00;99.90;;;;;;4993293;28;20030;-88
2023/01/19 12:36:16;;;;;;;32.42;15.35;;;0.90;99.90;;;;;;5095323;28;20799;-88
2023/01/19 12:38:49;;;;;;;34.63;15.70;;;0.90;99.90;;;;;;5095001;28;20037;-89
2023/01/19 12:41:24;;;;;;;30.73;15.52;;;1.00;99.90;;;;;;4993663;28;20038;-90
2023/01/19 12:44:15;;;;;;;31.98;15.80;;;0.80;99.90;;;;;;4993367;28;20375;-89
2023/01/19 12:47:19;;;;;;;36.92;19.27;;;0.90;99.90;;;;;;5079156;28;20083;-90
2023/01/19 12:49:59;;;;;;;30.48;14.95;;;1.00;99.90;;;;;;4977526;28;20036;-90
2023/01/19 12:52:32;;;;;;;30.77;14.95;;;1.20;99.90;;;;;;4993163;28;20132;-89